Time;durP1;ratioP1;P1;durP2;ratioP2;P2;SDS_P1;SDS_P2;PMS_P1;PMS_P2;Temp;Humidity;BMP_temperature;BMP_pressure;BME280_temperature;BME280_humidity;BME280_pressure;Samples;Min_cycle;Max_cycle;Signal;HPM_P1;HPM_P2
2023/03/28 00:01:10;;;;;;;3.40;1.30;;;26.20;99.90;;;;;;5050088;28;20471;-61
2023/03/28 00:03:38;;;;;;;2.67;1.25;;;26.30;99.90;;;;;;5044292;28;20036;-62
2023/03/28 00:06:17;;;;;;;4.70;1.50;;;26.30;99.90;;;;;;5043502;28;20164;-62
2023/03/28 00:08:46;;;;;;;2.53;1.20;;;26.40;99.90;;;;;;5034137;28;20053;-61
2023/03/28 00:11:20;;;;;;;6.85;1.75;;;26.50;99.90;;;;;;5043890;28;20025;-62
2023/03/28 00:14:02;;;;;;;6.50;1.60;;;26.60;99.90;;;;;;5049308;28;20052;-62
2023/03/28 00:16:35;;;;;;;3.80;1.30;;;26.70;99.90;;;;;;5042287;28;20103;-61
2023/03/28 00:19:08;;;;;;;1.77;0.87;;;26.80;99.90;;;;;;5045636;28;20103;-62
2023/03/28 00:21:38;;;;;;;3.03;1.70;;;26.80;99.90;;;;;;5048661;28;20059;-61
2023/03/28 00:24:09;;;;;;;12.50;1.63;;;26.90;99.90;;;;;;5044510;28;20083;-62
2023/03/28 00:26:37;;;;;;;4.22;1.33;;;26.90;99.90;;;;;;5044825;28;20622;-62
2023/03/28 00:29:10;;;;;;;4.25;1.63;;;26.90;99.90;;;;;;5047406;28;20032;-62
2023/03/28 00:31:39;;;;;;;3.25;1.30;;;26.90;99.90;;;;;;5045760;28;20075;-63
2023/03/28 00:34:07;;;;;;;3.92;1.50;;;26.90;99.90;;;;;;5041438;28;20035;-62
2023/03/28 00:36:38;;;;;;;4.47;1.35;;;26.90;99.90;;;;;;5046492;28;20047;-61
2023/03/28 00:39:06;;;;;;;4.60;2.20;;;27.00;99.90;;;;;;5058135;28;20591;-61
2023/03/28 00:41:39;;;;;;;4.07;1.83;;;27.00;99.90;;;;;;5047319;28;20056;-62
2023/03/28 00:44:42;;;;;;;2.10;1.65;;;27.00;99.90;;;;;;5049596;28;20099;-62
2023/03/28 00:47:40;;;;;;;4.32;1.58;;;26.90;99.90;;;;;;5049077;28;20029;-62
2023/03/28 00:50:12;;;;;;;2.53;1.40;;;27.00;99.90;;;;;;5042783;28;20082;-63
2023/03/28 00:52:55;;;;;;;2.63;1.60;;;27.00;99.90;;;;;;5049385;28;20082;-62
2023/03/28 00:55:31;;;;;;;3.80;1.42;;;26.90;99.90;;;;;;5049969;28;20103;-63
2023/03/28 00:57:59;;;;;;;4.80;1.60;;;26.80;99.90;;;;;;5045208;28;20030;-63
2023/03/28 01:00:29;;;;;;;5.55;1.30;;;26.80;99.90;;;;;;5046227;28;20392;-64
2023/03/28 01:02:57;;;;;;;2.25;1.05;;;26.70;99.90;;;;;;5051272;28;20029;-64
2023/03/28 01:05:31;;;;;;;5.78;1.58;;;26.70;99.90;;;;;;5039296;28;20036;-64
2023/03/28 01:08:25;;;;;;;1.90;1.35;;;26.60;99.90;;;;;;5054952;28;20128;-63
2023/03/28 01:10:53;;;;;;;5.53;1.33;;;26.60;99.90;;;;;;5062944;28;20031;-63
2023/03/28 01:13:29;;;;;;;3.22;1.48;;;26.50;99.90;;;;;;5050697;28;20025;-63
2023/03/28 01:15:58;;;;;;;1.77;1.25;;;26.30;99.90;;;;;;5053794;28;20443;-64
2023/03/28 01:18:25;;;;;;;3.42;1.48;;;26.20;99.90;;;;;;5045457;28;20039;-63
2023/03/28 01:21:23;;;;;;;3.85;1.45;;;26.00;99.90;;;;;;5049200;28;20029;-63
2023/03/28 01:24:14;;;;;;;2.47;1.40;;;25.80;99.90;;;;;;5035109;28;20021;-64
2023/03/28 01:26:54;;;;;;;4.47;1.80;;;25.50;99.90;;;;;;5049726;28;20025;-64
2023/03/28 01:29:43;;;;;;;4.63;1.45;;;25.30;99.90;;;;;;5047953;28;20035;-64
2023/03/28 01:32:42;;;;;;;5.32;1.40;;;25.20;99.90;;;;;;5045760;28;20021;-65
2023/03/28 01:35:29;;;;;;;3.83;1.48;;;25.20;99.90;;;;;;5053787;28;20041;-64
2023/03/28 01:38:18;;;;;;;3.42;1.60;;;25.20;99.90;;;;;;5040880;28;20040;-65
2023/03/28 01:41:09;;;;;;;4.57;1.63;;;25.20;99.90;;;;;;5045315;28;20083;-64
2023/03/28 01:43:42;;;;;;;2.88;1.90;;;25.10;99.90;;;;;;5045491;28;20508;-64
2023/03/28 01:46:30;;;;;;;10.32;1.90;;;25.10;99.90;;;;;;5044340;28;20037;-65
2023/03/28 01:49:36;;;;;;;3.20;1.42;;;25.00;99.90;;;;;;5045447;28;20116;-64
2023/03/28 01:52:13;;;;;;;12.85;1.90;;;25.00;99.90;;;;;;5015673;28;20028;-66
2023/03/28 01:55:02;;;;;;;7.47;1.80;;;24.90;99.90;;;;;;5030234;28;20033;-63
2023/03/28 01:57:41;;;;;;;2.50;1.40;;;24.80;99.90;;;;;;5045183;28;20118;-66
2023/03/28 02:00:18;;;;;;;3.03;1.25;;;24.70;99.90;;;;;;5048790;28;20029;-66
2023/03/28 02:02:59;;;;;;;7.22;1.73;;;24.60;99.90;;;;;;5059473;28;20506;-67
2023/03/28 02:05:30;;;;;;;3.95;2.15;;;24.50;99.90;;;;;;5051254;28;20051;-67
2023/03/28 02:08:00;;;;;;;6.35;1.48;;;24.40;99.90;;;;;;5064210;28;20096;-66
2023/03/28 02:10:28;;;;;;;2.58;1.50;;;24.30;99.90;;;;;;5050336;28;20032;-66
2023/03/28 02:13:19;;;;;;;3.70;1.90;;;24.20;99.90;;;;;;5032525;28;20235;-65
2023/03/28 02:15:51;;;;;;;3.85;1.50;;;24.00;99.90;;;;;;5040821;28;20114;-64
2023/03/28 02:18:28;;;;;;;6.25;2.13;;;23.80;99.90;;;;;;5047021;28;20028;-64
2023/03/28 02:21:01;;;;;;;4.53;1.92;;;23.50;99.90;;;;;;5048540;28;20438;-64
2023/03/28 02:23:35;;;;;;;5.22;2.13;;;23.30;99.90;;;;;;5048933;28;20029;-64
2023/03/28 02:26:03;;;;;;;3.10;1.90;;;23.10;99.90;;;;;;5045109;28;20025;-66
2023/03/28 02:28:31;;;;;;;5.28;2.22;;;22.90;99.90;;;;;;5059956;28;20071;-66
2023/03/28 02:31:00;;;;;;;6.03;1.95;;;22.80;99.90;;;;;;5065467;28;20063;-66
2023/03/28 02:33:36;;;;;;;5.40;1.95;;;22.70;99.90;;;;;;5029982;28;20630;-66
2023/03/28 02:36:22;;;;;;;3.35;1.88;;;22.60;99.90;;;;;;5039465;28;20550;-65
2023/03/28 02:39:15;;;;;;;6.88;2.20;;;22.50;99.90;;;;;;5053767;28;20029;-65
2023/03/28 02:42:09;;;;;;;3.78;1.88;;;22.40;99.90;;;;;;5048423;28;20029;-65
2023/03/28 02:45:06;;;;;;;5.18;2.10;;;22.30;99.90;;;;;;5002514;28;20401;-65
2023/03/28 02:47:38;;;;;;;6.55;2.25;;;22.30;99.90;;;;;;5030517;28;20036;-65
2023/03/28 02:50:11;;;;;;;3.90;2.25;;;22.30;99.90;;;;;;5069677;28;20508;-65
2023/03/28 02:53:25;;;;;;;4.43;1.75;;;22.20;99.90;;;;;;5056416;28;20388;-65
2023/03/28 02:56:11;;;;;;;5.53;2.05;;;22.10;99.90;;;;;;5026472;28;20795;-65
2023/03/28 02:58:54;;;;;;;8.40;2.38;;;22.10;99.90;;;;;;5064817;28;20135;-65
2023/03/28 03:01:29;;;;;;;7.28;2.40;;;22.00;99.90;;;;;;5049989;28;20017;-64
2023/03/28 03:03:56;;;;;;;2.95;2.13;;;22.00;99.90;;;;;;5034127;28;20029;-66
2023/03/28 03:06:24;;;;;;;6.25;2.53;;;22.00;99.90;;;;;;5032855;28;20056;-66
2023/03/28 03:08:51;;;;;;;6.32;2.10;;;21.90;99.90;;;;;;5049378;28;20102;-64
2023/03/28 03:11:20;;;;;;;6.80;1.92;;;22.00;99.90;;;;;;5048625;28;20017;-64
2023/03/28 03:13:48;;;;;;;4.88;2.35;;;21.90;99.90;;;;;;5056063;28;20078;-64
2023/03/28 03:16:15;;;;;;;5.28;1.80;;;22.00;99.90;;;;;;5052969;28;20033;-64
2023/03/28 03:18:42;;;;;;;2.58;1.83;;;22.10;99.90;;;;;;5062473;28;20025;-64
2023/03/28 03:21:10;;;;;;;5.22;1.98;;;22.10;99.90;;;;;;5060517;28;20048;-65
2023/03/28 03:23:37;;;;;;;4.22;1.98;;;22.20;99.90;;;;;;5058926;28;20478;-65
2023/03/28 03:26:05;;;;;;;5.63;2.10;;;22.20;99.90;;;;;;5060057;28;20033;-64
2023/03/28 03:28:32;;;;;;;5.55;2.28;;;22.30;99.90;;;;;;5058596;28;20035;-64
2023/03/28 03:31:00;;;;;;;6.43;2.33;;;22.30;99.90;;;;;;5059233;28;20017;-64
2023/03/28 03:33:28;;;;;;;3.22;1.90;;;22.20;99.90;;;;;;5062680;28;20465;-64
2023/03/28 03:35:55;;;;;;;4.15;1.55;;;22.20;99.90;;;;;;5062779;28;20020;-63
2023/03/28 03:38:23;;;;;;;8.80;2.10;;;22.10;99.90;;;;;;5059337;28;20028;-65
2023/03/28 03:40:50;;;;;;;3.42;1.35;;;22.10;99.90;;;;;;5058474;28;20051;-64
2023/03/28 03:43:17;;;;;;;3.97;1.65;;;22.00;99.90;;;;;;5062224;28;20078;-64
2023/03/28 03:45:45;;;;;;;4.45;2.10;;;21.90;99.90;;;;;;5033823;28;20056;-65
2023/03/28 03:48:12;;;;;;;4.18;3.05;;;21.80;99.90;;;;;;5054649;28;20036;-65
2023/03/28 03:50:40;;;;;;;2.90;1.92;;;21.70;99.90;;;;;;5061703;28;20430;-63
2023/03/28 03:53:07;;;;;;;6.75;2.42;;;21.50;99.90;;;;;;5052105;28;20477;-65
2023/03/28 03:55:39;;;;;;;5.25;2.45;;;21.50;99.90;;;;;;5057793;28;20037;-66
2023/03/28 03:58:07;;;;;;;3.90;2.80;;;21.40;99.90;;;;;;5051423;28;20036;-65
2023/03/28 04:00:36;;;;;;;6.25;2.47;;;21.30;99.90;;;;;;5061483;28;20119;-65
2023/03/28 04:03:03;;;;;;;7.65;3.15;;;21.20;99.90;;;;;;5052899;28;20068;-63
2023/03/28 04:05:31;;;;;;;5.50;2.47;;;21.20;99.90;;;;;;5062433;28;20017;-65
2023/03/28 04:08:00;;;;;;;6.80;2.60;;;21.10;99.90;;;;;;5055279;28;20136;-65
2023/03/28 04:10:28;;;;;;;8.07;2.45;;;21.00;99.90;;;;;;5039569;28;20044;-69
2023/03/28 04:12:55;;;;;;;9.55;3.55;;;20.90;99.90;;;;;;5052251;28;20032;-65
2023/03/28 04:15:22;;;;;;;8.02;3.15;;;20.80;99.90;;;;;;5060229;28;20497;-67
2023/03/28 04:17:51;;;;;;;7.47;3.20;;;20.80;99.90;;;;;;5049389;28;20401;-65
2023/03/28 04:20:19;;;;;;;6.47;3.28;;;20.70;99.90;;;;;;5050724;28;20025;-67
2023/03/28 04:22:47;;;;;;;6.80;3.30;;;20.60;99.90;;;;;;5045318;28;20063;-67
2023/03/28 04:25:16;;;;;;;4.72;2.65;;;20.50;99.90;;;;;;5044540;28;20029;-66
2023/03/28 04:27:47;;;;;;;7.75;2.40;;;20.40;99.90;;;;;;5044826;28;20021;-66
2023/03/28 04:30:16;;;;;;;7.88;3.03;;;20.40;99.90;;;;;;5045493;28;20048;-67
2023/03/28 04:32:48;;;;;;;8.30;2.65;;;20.30;99.90;;;;;;5041665;28;20036;-66
2023/03/28 04:35:15;;;;;;;6.53;2.85;;;20.30;99.90;;;;;;5045179;28;20543;-65
2023/03/28 04:37:43;;;;;;;8.32;4.25;;;20.30;99.90;;;;;;5044773;28;20040;-64
2023/03/28 04:40:11;;;;;;;8.35;3.90;;;20.20;99.90;;;;;;5045874;28;20453;-64
2023/03/28 04:42:39;;;;;;;12.45;4.07;;;20.30;99.90;;;;;;5045731;28;20111;-65
2023/03/28 04:45:08;;;;;;;10.05;4.45;;;20.30;99.90;;;;;;5042632;28;20047;-66
2023/03/28 04:47:39;;;;;;;9.05;4.03;;;20.20;99.90;;;;;;5047142;28;20025;-66
2023/03/28 04:50:08;;;;;;;7.25;3.40;;;20.20;99.90;;;;;;5042655;28;20099;-66
2023/03/28 04:52:36;;;;;;;10.95;4.15;;;20.20;99.90;;;;;;5038256;28;20032;-65
2023/03/28 04:55:04;;;;;;;13.18;3.70;;;20.20;99.90;;;;;;5044559;28;20044;-65
2023/03/28 04:57:32;;;;;;;5.63;2.78;;;20.30;99.90;;;;;;5042425;28;20060;-65
2023/03/28 04:59:59;;;;;;;10.20;3.63;;;20.30;99.90;;;;;;5045054;28;20064;-65
2023/03/28 05:02:26;;;;;;;7.20;3.50;;;20.30;99.90;;;;;;5045622;28;20029;-65
2023/03/28 05:04:54;;;;;;;7.90;4.30;;;20.40;99.90;;;;;;5046098;28;20470;-65
2023/03/28 05:07:21;;;;;;;8.38;4.72;;;20.50;99.90;;;;;;5047679;28;20027;-66
2023/03/28 05:09:49;;;;;;;9.60;3.50;;;20.60;99.90;;;;;;5046450;28;20528;-66
2023/03/28 05:12:16;;;;;;;11.95;4.20;;;20.70;99.90;;;;;;5037945;28;20033;-64
2023/03/28 05:14:44;;;;;;;9.35;4.10;;;20.80;99.90;;;;;;5044783;28;20527;-65
2023/03/28 05:17:11;;;;;;;7.35;3.95;;;20.90;99.90;;;;;;5047190;28;20071;-66
2023/03/28 05:19:39;;;;;;;8.30;3.78;;;20.90;99.90;;;;;;5047491;28;20025;-65
2023/03/28 05:22:06;;;;;;;7.38;3.83;;;20.90;99.90;;;;;;5029305;28;20375;-66
2023/03/28 05:24:34;;;;;;;10.63;4.88;;;20.90;99.90;;;;;;5043314;28;20025;-67
2023/03/28 05:27:01;;;;;;;7.57;4.15;;;20.90;99.90;;;;;;5046808;28;20017;-65
2023/03/28 05:29:29;;;;;;;5.20;3.33;;;20.90;99.90;;;;;;5063873;28;20021;-66
2023/03/28 05:31:56;;;;;;;7.38;3.47;;;20.90;99.90;;;;;;5048950;28;20031;-67
2023/03/28 05:34:24;;;;;;;8.95;3.53;;;20.90;99.90;;;;;;5046415;28;20553;-66
2023/03/28 05:36:51;;;;;;;6.78;3.30;;;20.90;99.90;;;;;;5046322;28;20033;-66
2023/03/28 05:39:19;;;;;;;5.47;3.10;;;20.80;99.90;;;;;;5046400;28;20496;-66
2023/03/28 05:41:46;;;;;;;7.68;2.08;;;20.80;99.90;;;;;;5044771;28;20528;-63
2023/03/28 05:44:14;;;;;;;5.28;2.30;;;20.80;99.90;;;;;;5044687;28;20108;-63
2023/03/28 05:46:41;;;;;;;9.90;2.55;;;20.80;99.90;;;;;;5042182;28;20029;-63
2023/03/28 05:49:10;;;;;;;7.43;2.22;;;20.70;99.90;;;;;;5044320;28;20531;-63
2023/03/28 05:51:38;;;;;;;13.85;2.08;;;20.70;99.90;;;;;;5045799;28;20083;-62
2023/03/28 05:54:05;;;;;;;6.35;2.40;;;20.70;99.90;;;;;;5025995;28;20422;-63
2023/03/28 05:56:34;;;;;;;6.38;2.28;;;20.70;99.90;;;;;;5043913;28;20033;-63
2023/03/28 05:59:02;;;;;;;3.65;1.92;;;20.70;99.90;;;;;;5046871;28;20087;-62
2023/03/28 06:01:30;;;;;;;10.63;1.77;;;20.60;99.90;;;;;;5045377;28;20598;-63
2023/03/28 06:03:58;;;;;;;5.13;2.30;;;20.60;99.90;;;;;;5043394;28;20021;-63
2023/03/28 06:06:26;;;;;;;5.40;2.75;;;20.60;99.90;;;;;;5046610;28;20314;-63
2023/03/28 06:08:53;;;;;;;5.00;2.42;;;20.60;99.90;;;;;;5043104;28;20044;-63
2023/03/28 06:11:21;;;;;;;6.78;2.00;;;20.60;99.90;;;;;;5049633;28;20035;-62
2023/03/28 06:13:48;;;;;;;4.32;2.45;;;20.60;99.90;;;;;;5031872;28;20373;-61
2023/03/28 06:16:16;;;;;;;7.25;2.30;;;20.60;99.90;;;;;;5030939;28;20028;-62
2023/03/28 06:18:43;;;;;;;4.72;1.90;;;20.50;99.90;;;;;;5049088;28;20060;-61
2023/03/28 06:21:11;;;;;;;4.18;1.83;;;20.50;99.90;;;;;;5048074;28;20025;-63
2023/03/28 06:23:38;;;;;;;5.72;1.65;;;20.40;99.90;;;;;;5049763;28;20025;-63
2023/03/28 06:26:06;;;;;;;5.68;2.20;;;20.40;99.90;;;;;;5048399;28;20021;-60
2023/03/28 06:28:33;;;;;;;6.28;2.28;;;20.40;99.90;;;;;;5029489;28;20035;-61
2023/03/28 06:31:01;;;;;;;7.68;2.17;;;20.40;99.90;;;;;;5050298;28;20046;-62
2023/03/28 06:33:28;;;;;;;6.25;1.63;;;20.40;99.90;;;;;;5047539;28;20053;-62
2023/03/28 06:35:56;;;;;;;4.35;2.08;;;20.40;99.90;;;;;;5032935;28;20029;-64
2023/03/28 06:38:23;;;;;;;9.07;1.73;;;20.40;99.90;;;;;;5049790;28;20476;-63
2023/03/28 06:40:51;;;;;;;4.32;2.47;;;20.40;99.90;;;;;;5049779;28;20025;-64
2023/03/28 06:43:18;;;;;;;7.28;1.80;;;20.30;99.90;;;;;;5049684;28;20504;-64
2023/03/28 06:45:46;;;;;;;3.90;1.70;;;20.30;99.90;;;;;;5049337;28;20036;-63
2023/03/28 06:48:13;;;;;;;4.10;1.95;;;20.30;99.90;;;;;;5044663;28;20155;-63
2023/03/28 06:50:48;;;;;;;4.47;2.22;;;20.20;99.90;;;;;;5052090;28;20033;-63
2023/03/28 06:53:19;;;;;;;5.03;1.75;;;20.20;99.90;;;;;;5049559;28;20108;-63
2023/03/28 06:55:50;;;;;;;3.55;1.80;;;20.20;99.90;;;;;;5031507;28;20537;-63
2023/03/28 06:58:19;;;;;;;4.70;2.00;;;20.20;99.90;;;;;;5047687;28;20051;-63
2023/03/28 07:00:46;;;;;;;4.45;1.90;;;20.20;99.90;;;;;;5041245;28;20058;-63
2023/03/28 07:03:14;;;;;;;5.97;2.25;;;20.10;99.90;;;;;;5044344;28;20062;-62
2023/03/28 07:05:43;;;;;;;5.07;2.22;;;20.20;99.90;;;;;;5044712;28;20456;-62
2023/03/28 07:08:12;;;;;;;6.78;2.70;;;20.10;99.90;;;;;;5026644;28;20059;-63
2023/03/28 07:10:40;;;;;;;4.68;2.28;;;20.20;99.90;;;;;;5047257;28;20032;-63
2023/03/28 07:13:08;;;;;;;5.28;2.42;;;20.10;99.90;;;;;;5044925;28;20033;-63
2023/03/28 07:15:35;;;;;;;6.72;2.38;;;20.10;99.90;;;;;;5046573;28;20021;-64
2023/03/28 07:18:04;;;;;;;5.88;2.22;;;20.10;99.90;;;;;;5052415;28;20036;-63
2023/03/28 07:20:32;;;;;;;5.22;2.33;;;20.00;99.90;;;;;;5046587;28;20025;-65
2023/03/28 07:22:59;;;;;;;6.07;2.30;;;20.00;99.90;;;;;;5045399;28;20102;-65
2023/03/28 07:25:27;;;;;;;4.43;2.67;;;20.00;99.90;;;;;;5047709;28;20033;-64
2023/03/28 07:27:54;;;;;;;8.18;2.20;;;20.00;99.90;;;;;;5031189;28;20033;-65
2023/03/28 07:30:22;;;;;;;4.32;2.22;;;19.90;99.90;;;;;;5040339;28;20486;-64
2023/03/28 07:32:49;;;;;;;7.70;2.15;;;19.90;99.90;;;;;;5046819;28;20039;-64
2023/03/28 07:35:17;;;;;;;4.80;2.28;;;19.90;99.90;;;;;;5046204;28;20032;-64
2023/03/28 07:37:44;;;;;;;8.10;2.03;;;19.80;99.90;;;;;;5029803;28;20036;-64
2023/03/28 07:40:12;;;;;;;10.13;2.28;;;19.80;99.90;;;;;;5043316;28;20497;-64
2023/03/28 07:42:40;;;;;;;4.15;1.90;;;19.80;99.90;;;;;;5046764;28;20095;-65
2023/03/28 07:45:08;;;;;;;6.20;1.95;;;19.80;99.90;;;;;;5032150;28;20036;-65
2023/03/28 07:47:35;;;;;;;4.57;3.60;;;19.70;99.90;;;;;;5046006;28;20028;-65
2023/03/28 07:50:03;;;;;;;4.30;2.08;;;19.60;99.90;;;;;;5047572;28;20017;-69
2023/03/28 07:52:30;;;;;;;5.28;2.10;;;19.60;99.90;;;;;;5047004;28;20039;-70
2023/03/28 07:54:58;;;;;;;3.75;1.98;;;19.60;99.90;;;;;;5037376;28;20659;-68
2023/03/28 07:57:25;;;;;;;6.50;1.85;;;19.60;99.90;;;;;;5051074;28;20037;-67
2023/03/28 07:59:54;;;;;;;4.63;2.00;;;19.60;99.90;;;;;;5052618;28;20038;-69
2023/03/28 08:02:22;;;;;;;6.75;1.98;;;19.50;99.90;;;;;;5044583;28;20464;-68
2023/03/28 08:04:52;;;;;;;6.32;2.17;;;19.50;99.90;;;;;;5046322;28;20029;-68
2023/03/28 08:07:20;;;;;;;6.22;3.17;;;19.50;99.90;;;;;;5042582;28;20072;-68
2023/03/28 08:09:49;;;;;;;3.42;2.10;;;19.50;99.90;;;;;;5043969;28;20087;-68
2023/03/28 08:12:18;;;;;;;3.80;1.98;;;19.40;99.90;;;;;;5029944;28;20634;-66
2023/03/28 08:14:45;;;;;;;5.43;1.75;;;19.50;99.90;;;;;;5040334;28;20480;-67
2023/03/28 08:17:13;;;;;;;3.58;2.10;;;19.40;99.90;;;;;;5038132;28;20884;-66
2023/03/28 08:19:40;;;;;;;4.03;1.70;;;19.40;99.90;;;;;;5035002;28;20045;-67
2023/03/28 08:22:09;;;;;;;5.32;2.00;;;19.40;99.90;;;;;;5034648;28;20401;-67
2023/03/28 08:24:36;;;;;;;4.25;1.98;;;19.40;99.90;;;;;;5027290;28;20044;-67
2023/03/28 08:27:04;;;;;;;4.90;2.13;;;19.40;99.90;;;;;;5043759;28;20111;-66
2023/03/28 08:29:32;;;;;;;8.02;2.05;;;19.40;99.90;;;;;;5041059;28;20029;-66
2023/03/28 08:31:59;;;;;;;5.13;2.20;;;19.40;99.90;;;;;;5046592;28;20029;-67
2023/03/28 08:34:26;;;;;;;4.43;1.90;;;19.40;99.90;;;;;;5021197;28;20038;-66
2023/03/28 08:36:54;;;;;;;3.40;2.00;;;19.30;99.90;;;;;;5046475;28;20037;-66
2023/03/28 08:39:22;;;;;;;3.47;2.00;;;19.30;99.90;;;;;;5043678;28;20509;-67
2023/03/28 08:42:05;;;;;;;3.95;2.13;;;19.30;99.90;;;;;;5043626;28;20541;-66
2023/03/28 08:44:50;;;;;;;5.95;3.13;;;19.30;99.90;;;;;;5038791;28;20032;-67
2023/03/28 08:47:32;;;;;;;6.30;2.13;;;19.30;99.90;;;;;;5046301;28;20025;-67
2023/03/28 08:50:29;;;;;;;5.18;2.25;;;19.30;99.90;;;;;;5043385;28;20048;-69
2023/03/28 08:52:57;;;;;;;5.97;2.00;;;19.30;99.90;;;;;;5016541;28;20040;-69
2023/03/28 08:55:44;;;;;;;2.85;1.98;;;19.30;99.90;;;;;;5039961;28;20033;-69
2023/03/28 08:58:20;;;;;;;5.82;2.10;;;19.30;99.90;;;;;;5040997;28;20048;-69
2023/03/28 09:00:49;;;;;;;3.60;1.80;;;19.20;99.90;;;;;;5036642;28;20203;-69
2023/03/28 09:03:22;;;;;;;4.38;1.83;;;19.30;99.90;;;;;;5044260;28;20792;-68
2023/03/28 09:06:07;;;;;;;3.88;2.55;;;19.30;99.90;;;;;;5037515;28;20022;-69
2023/03/28 09:09:04;;;;;;;7.07;2.00;;;19.20;99.90;;;;;;5036087;28;20403;-69
2023/03/28 09:11:56;;;;;;;8.65;3.17;;;19.20;99.90;;;;;;4952244;28;20061;-69
2023/03/28 09:14:24;;;;;;;3.63;1.75;;;19.20;99.90;;;;;;5037861;28;20032;-69
2023/03/28 09:17:03;;;;;;;3.78;2.00;;;19.20;99.90;;;;;;5004798;28;20513;-70
2023/03/28 09:19:48;;;;;;;4.43;1.67;;;19.20;99.90;;;;;;5023901;28;20033;-69
2023/03/28 09:22:57;;;;;;;4.72;1.80;;;19.20;99.90;;;;;;5021117;28;20025;-70
2023/03/28 09:25:51;;;;;;;3.47;1.73;;;19.10;99.90;;;;;;4972249;28;20045;-69
2023/03/28 09:28:47;;;;;;;3.83;1.60;;;19.10;99.90;;;;;;5004385;28;20025;-68
2023/03/28 09:31:18;;;;;;;6.03;1.70;;;19.10;99.90;;;;;;4998067;28;20397;-68
2023/03/28 09:33:49;;;;;;;4.35;1.70;;;19.10;99.90;;;;;;5008350;28;20721;-67
2023/03/28 09:36:24;;;;;;;4.00;1.90;;;19.00;99.90;;;;;;5032371;28;20016;-68
2023/03/28 09:38:56;;;;;;;5.10;1.80;;;19.00;99.90;;;;;;5026735;28;20592;-68
2023/03/28 09:41:37;;;;;;;4.05;1.60;;;19.00;99.90;;;;;;5016177;28;20105;-67
2023/03/28 09:44:07;;;;;;;4.97;1.90;;;19.00;99.90;;;;;;5015810;28;20167;-68
2023/03/28 09:46:47;;;;;;;2.88;1.95;;;19.00;99.90;;;;;;5019763;28;20525;-66
2023/03/28 09:49:20;;;;;;;4.93;1.55;;;19.00;99.90;;;;;;5026616;28;20131;-67
2023/03/28 09:51:53;;;;;;;2.88;1.90;;;19.00;99.90;;;;;;5006014;28;20107;-67
2023/03/28 09:54:34;;;;;;;6.50;2.33;;;19.00;99.90;;;;;;5010384;28;20060;-67
2023/03/28 09:57:05;;;;;;;7.05;2.97;;;19.00;99.90;;;;;;5001137;28;20498;-67
2023/03/28 09:59:35;;;;;;;2.53;1.95;;;19.00;99.90;;;;;;5005275;28;20027;-68
2023/03/28 10:02:03;;;;;;;4.78;2.00;;;18.90;99.90;;;;;;5019737;28;20029;-70
2023/03/28 10:04:32;;;;;;;4.55;1.88;;;18.90;99.90;;;;;;5018279;28;20026;-67
2023/03/28 10:07:11;;;;;;;5.90;2.25;;;18.90;99.90;;;;;;5014158;28;20040;-69
2023/03/28 10:09:50;;;;;;;3.17;1.60;;;18.90;99.90;;;;;;5017194;28;20045;-68
2023/03/28 10:12:25;;;;;;;3.47;1.80;;;18.80;99.90;;;;;;5050062;28;20108;-68
2023/03/28 10:14:52;;;;;;;4.28;1.83;;;18.90;99.90;;;;;;5039687;28;20017;-68
2023/03/28 10:17:19;;;;;;;6.03;2.08;;;18.80;99.90;;;;;;5043258;28;20041;-69
2023/03/28 10:19:52;;;;;;;4.95;1.90;;;18.90;99.90;;;;;;5049190;28;20022;-70
2023/03/28 10:22:38;;;;;;;5.65;1.90;;;18.90;99.90;;;;;;5017585;28;20124;-68
2023/03/28 10:25:13;;;;;;;3.85;1.90;;;18.90;99.90;;;;;;5039569;28;20023;-70
2023/03/28 10:27:41;;;;;;;6.97;2.25;;;18.90;99.90;;;;;;5038363;28;20571;-69
2023/03/28 10:30:15;;;;;;;7.70;2.50;;;18.90;99.90;;;;;;5043894;28;20021;-69
2023/03/28 10:32:42;;;;;;;4.22;2.15;;;18.80;99.90;;;;;;5042708;28;20025;-68
2023/03/28 10:35:23;;;;;;;4.30;2.20;;;18.90;99.90;;;;;;5041378;28;20035;-68
2023/03/28 10:37:55;;;;;;;5.93;2.92;;;18.90;99.90;;;;;;5033973;28;20682;-69
2023/03/28 10:40:29;;;;;;;8.95;2.53;;;18.90;99.90;;;;;;5059262;22;21295;-66
2023/03/28 10:42:58;;;;;;;5.95;2.42;;;18.90;99.90;;;;;;5024826;28;20048;-66
2023/03/28 10:45:49;;;;;;;7.75;2.97;;;18.90;99.90;;;;;;5028937;28;20720;-66
2023/03/28 10:48:25;;;;;;;6.97;2.50;;;18.90;99.90;;;;;;5045091;28;20060;-66
2023/03/28 10:50:59;;;;;;;7.15;3.30;;;18.90;99.90;;;;;;5033834;28;20029;-66
2023/03/28 10:53:36;;;;;;;7.53;2.53;;;18.90;99.90;;;;;;5020708;28;20090;-66
2023/03/28 10:56:03;;;;;;;4.47;2.17;;;18.90;99.90;;;;;;5027884;28;20086;-65
2023/03/28 10:58:35;;;;;;;6.25;2.83;;;18.90;99.90;;;;;;5042742;28;20047;-66
2023/03/28 11:01:13;;;;;;;5.15;2.50;;;18.90;99.90;;;;;;5043419;28;20457;-66
2023/03/28 11:03:46;;;;;;;4.32;2.40;;;18.90;99.90;;;;;;5043713;28;20025;-66
2023/03/28 11:06:22;;;;;;;5.53;3.13;;;18.90;99.90;;;;;;5038992;28;20604;-66
2023/03/28 11:09:04;;;;;;;4.95;2.42;;;18.90;99.90;;;;;;5047545;28;20560;-67
2023/03/28 11:11:35;;;;;;;4.45;2.40;;;18.90;99.90;;;;;;5046588;28;20040;-66
2023/03/28 11:14:18;;;;;;;4.75;2.30;;;18.90;99.90;;;;;;5027143;28;20026;-67
2023/03/28 11:17:10;;;;;;;4.88;2.40;;;18.90;99.90;;;;;;5023002;28;20025;-67
2023/03/28 11:19:49;;;;;;;8.10;2.40;;;18.90;99.90;;;;;;5021261;28;20037;-63
2023/03/28 11:22:41;;;;;;;7.82;2.80;;;19.00;99.90;;;;;;5041140;28;20036;-66
2023/03/28 11:25:31;;;;;;;9.55;2.72;;;18.90;99.90;;;;;;5036845;28;20032;-67
2023/03/28 11:28:04;;;;;;;6.28;2.60;;;18.90;99.90;;;;;;5044701;28;20032;-66
2023/03/28 11:30:33;;;;;;;4.50;2.50;;;19.00;99.90;;;;;;5046382;28;20624;-66
2023/03/28 11:33:17;;;;;;;6.85;2.60;;;19.00;99.90;;;;;;5043422;28;20031;-66
2023/03/28 11:35:50;;;;;;;8.18;3.05;;;19.00;99.90;;;;;;5041015;28;20021;-65
2023/03/28 11:38:21;;;;;;;10.73;4.53;;;19.00;99.90;;;;;;5022471;28;20123;-65
2023/03/28 11:41:14;;;;;;;10.98;7.50;;;19.00;99.90;;;;;;5022604;28;20509;-65
2023/03/28 11:43:57;;;;;;;19.58;11.10;;;19.00;99.90;;;;;;4995754;28;20417;-65
2023/03/28 11:46:37;;;;;;;19.45;10.40;;;19.00;99.90;;;;;;5026641;28;20386;-66
2023/03/28 11:49:16;;;;;;;16.02;7.70;;;18.90;99.90;;;;;;5028513;28;20095;-66
2023/03/28 11:52:15;;;;;;;10.15;6.57;;;18.90;99.90;;;;;;5023221;28;20025;-65
2023/03/28 11:54:52;;;;;;;11.93;5.50;;;18.90;99.90;;;;;;5028042;28;20029;-66
2023/03/28 11:57:30;;;;;;;6.25;4.18;;;18.90;99.90;;;;;;5027455;28;20535;-65
2023/03/28 12:00:11;;;;;;;7.07;4.22;;;18.90;99.90;;;;;;5008397;28;20026;-65
2023/03/28 12:02:55;;;;;;;8.38;4.30;;;18.90;99.90;;;;;;5004424;28;20486;-65
2023/03/28 12:05:31;;;;;;;7.93;4.85;;;18.90;99.90;;;;;;5027514;28;20033;-65
2023/03/28 12:08:20;;;;;;;12.35;7.07;;;18.90;99.90;;;;;;5015439;28;20041;-66
2023/03/28 12:10:55;;;;;;;13.13;6.72;;;18.90;99.90;;;;;;5028842;28;20079;-65
2023/03/28 12:13:55;;;;;;;13.98;6.00;;;18.90;99.90;;;;;;5024917;28;20021;-66
2023/03/28 12:16:29;;;;;;;6.43;3.72;;;18.90;99.90;;;;;;4976796;28;20502;-66
2023/03/28 12:19:03;;;;;;;10.00;3.55;;;18.90;99.90;;;;;;5019216;28;20076;-66
2023/03/28 12:22:00;;;;;;;5.53;3.38;;;18.80;99.90;;;;;;5029390;28;20029;-65
2023/03/28 12:24:40;;;;;;;8.50;3.50;;;18.80;99.90;;;;;;5013781;28;20037;-66
2023/03/28 12:27:38;;;;;;;7.20;3.30;;;18.80;99.90;;;;;;5028771;28;20022;-65
2023/03/28 12:30:32;;;;;;;7.00;3.47;;;18.80;99.90;;;;;;5028881;28;20052;-65
2023/03/28 12:33:10;;;;;;;9.55;3.72;;;18.80;99.90;;;;;;5028248;28;20112;-66
2023/03/28 12:35:48;;;;;;;17.60;6.22;;;18.80;99.90;;;;;;5026797;28;20084;-66
2023/03/28 12:38:18;;;;;;;15.48;5.40;;;18.80;99.90;;;;;;5012101;28;20110;-65
2023/03/28 12:40:52;;;;;;;9.88;4.53;;;18.80;99.90;;;;;;5008495;28;20286;-65
2023/03/28 12:43:26;;;;;;;9.18;4.35;;;18.80;99.90;;;;;;5006648;28;20034;-65
2023/03/28 12:45:59;;;;;;;9.63;3.47;;;18.80;99.90;;;;;;5019717;28;20032;-64
2023/03/28 12:48:31;;;;;;;9.85;4.22;;;18.80;99.90;;;;;;5001702;28;20053;-66
2023/03/28 12:51:06;;;;;;;10.30;3.78;;;18.80;99.90;;;;;;5004605;28;20360;-66
2023/03/28 12:53:33;;;;;;;9.70;4.22;;;18.80;99.90;;;;;;5008250;28;20029;-65
2023/03/28 12:56:02;;;;;;;7.45;4.03;;;18.70;99.90;;;;;;5007105;28;20034;-66
2023/03/28 12:58:35;;;;;;;6.80;3.90;;;18.80;99.90;;;;;;5007647;28;20058;-66
2023/03/28 13:01:08;;;;;;;7.43;3.17;;;18.70;99.90;;;;;;5004448;28;20030;-66
2023/03/28 13:03:44;;;;;;;3.30;2.22;;;18.70;99.90;;;;;;5004947;28;20036;-66
2023/03/28 13:06:36;;;;;;;5.45;2.78;;;18.70;99.90;;;;;;5002962;28;21522;-66
2023/03/28 13:09:19;;;;;;;8.15;3.50;;;18.70;99.90;;;;;;5000671;28;20030;-66
2023/03/28 13:12:02;;;;;;;10.93;5.78;;;18.70;99.90;;;;;;5007562;28;20597;-65
2023/03/28 13:14:40;;;;;;;10.90;4.55;;;18.70;99.90;;;;;;5008187;28;20087;-66
2023/03/28 13:17:25;;;;;;;10.75;4.45;;;18.70;99.90;;;;;;5006222;28;20406;-66
2023/03/28 13:20:11;;;;;;;8.18;3.30;;;18.70;99.90;;;;;;5009375;28;20044;-65